sensor_id;sensor_type;location;lat;lon;timestamp;pressure;altitude;pressure_sealevel;temperature;humidity
6150;BME280;3106;42.670;23.318;2023-12-07T00:02:16;94063.00;;;5.63;100.00
6150;BME280;3106;42.670;23.318;2023-12-07T00:04:43;94053.03;;;5.60;100.00
6150;BME280;3106;42.670;23.318;2023-12-07T00:07:10;94070.91;;;5.80;100.00
6150;BME280;3106;42.670;23.318;2023-12-07T00:09:36;94037.31;;;5.55;100.00
6150;BME280;3106;42.670;23.318;2023-12-07T00:12:04;94071.19;;;5.87;100.00
6150;BME280;3106;42.670;23.318;2023-12-07T00:14:33;94065.22;;;5.90;100.00
6150;BME280;3106;42.670;23.318;2023-12-07T00:17:00;94061.84;;;5.81;100.00
6150;BME280;3106;42.670;23.318;2023-12-07T00:19:26;94074.19;;;5.77;100.00
6150;BME280;3106;42.670;23.318;2023-12-07T00:21:53;94060.31;;;5.71;100.00
6150;BME280;3106;42.670;23.318;2023-12-07T00:24:20;94069.16;;;5.84;100.00
6150;BME280;3106;42.670;23.318;2023-12-07T00:26:47;94065.13;;;5.86;100.00
6150;BME280;3106;42.670;23.318;2023-12-07T00:29:15;94059.34;;;5.84;100.00
6150;BME280;3106;42.670;23.318;2023-12-07T00:31:44;94071.63;;;5.89;100.00
6150;BME280;3106;42.670;23.318;2023-12-07T00:34:11;94071.44;;;5.93;100.00
6150;BME280;3106;42.670;23.318;2023-12-07T00:36:37;94070.66;;;6.01;100.00
6150;BME280;3106;42.670;23.318;2023-12-07T00:41:51;94062.34;;;6.03;100.00
6150;BME280;3106;42.670;23.318;2023-12-07T00:44:18;94068.91;;;6.05;100.00
6150;BME280;3106;42.670;23.318;2023-12-07T00:46:46;94079.31;;;6.10;100.00
6150;BME280;3106;42.670;23.318;2023-12-07T00:49:13;94047.06;;;6.00;100.00
6150;BME280;3106;42.670;23.318;2023-12-07T00:51:40;94053.34;;;5.95;100.00
6150;BME280;3106;42.670;23.318;2023-12-07T00:54:07;94059.03;;;6.06;100.00
6150;BME280;3106;42.670;23.318;2023-12-07T00:56:34;94066.06;;;6.10;100.00
6150;BME280;3106;42.670;23.318;2023-12-07T00:59:02;94059.66;;;6.11;100.00
6150;BME280;3106;42.670;23.318;2023-12-07T01:01:29;94058.75;;;6.07;100.00
6150;BME280;3106;42.670;23.318;2023-12-07T01:03:57;94065.00;;;6.03;100.00
6150;BME280;3106;42.670;23.318;2023-12-07T01:06:24;94065.19;;;5.98;100.00
6150;BME280;3106;42.670;23.318;2023-12-07T01:08:50;94065.00;;;6.03;100.00
6150;BME280;3106;42.670;23.318;2023-12-07T01:11:17;94057.41;;;5.93;100.00
6150;BME280;3106;42.670;23.318;2023-12-07T01:13:44;94004.91;;;5.49;100.00
6150;BME280;3106;42.670;23.318;2023-12-07T01:16:11;94052.34;;;5.80;100.00
6150;BME280;3106;42.670;23.318;2023-12-07T01:18:38;94052.25;;;5.68;100.00
6150;BME280;3106;42.670;23.318;2023-12-07T01:21:07;94025.97;;;5.46;100.00
6150;BME280;3106;42.670;23.318;2023-12-07T01:23:34;94032.19;;;5.50;100.00
6150;BME280;3106;42.670;23.318;2023-12-07T01:26:01;94055.41;;;5.53;100.00
6150;BME280;3106;42.670;23.318;2023-12-07T01:28:28;94041.28;;;5.40;100.00
6150;BME280;3106;42.670;23.318;2023-12-07T01:30:56;94059.78;;;5.49;100.00
6150;BME280;3106;42.670;23.318;2023-12-07T01:33:23;94036.78;;;5.32;100.00
6150;BME280;3106;42.670;23.318;2023-12-07T01:35:50;94045.03;;;5.39;100.00
6150;BME280;3106;42.670;23.318;2023-12-07T01:38:19;94040.34;;;5.36;100.00
6150;BME280;3106;42.670;23.318;2023-12-07T01:40:46;94029.63;;;5.33;100.00
6150;BME280;3106;42.670;23.318;2023-12-07T01:43:13;94018.00;;;5.17;100.00
6150;BME280;3106;42.670;23.318;2023-12-07T01:45:40;94040.38;;;5.28;100.00
6150;BME280;3106;42.670;23.318;2023-12-07T01:48:06;94046.94;;;5.30;100.00
6150;BME280;3106;42.670;23.318;2023-12-07T01:50:33;94038.69;;;5.32;100.00
6150;BME280;3106;42.670;23.318;2023-12-07T01:53:02;94029.78;;;5.28;100.00
6150;BME280;3106;42.670;23.318;2023-12-07T01:55:32;94027.47;;;5.26;100.00
6150;BME280;3106;42.670;23.318;2023-12-07T01:57:59;94040.81;;;5.38;100.00
6150;BME280;3106;42.670;23.318;2023-12-07T02:00:26;94033.69;;;5.30;100.00
6150;BME280;3106;42.670;23.318;2023-12-07T02:02:54;94044.44;;;5.34;100.00
6150;BME280;3106;42.670;23.318;2023-12-07T02:05:22;94037.13;;;5.31;100.00
6150;BME280;3106;42.670;23.318;2023-12-07T02:07:49;94026.81;;;5.38;100.00
6150;BME280;3106;42.670;23.318;2023-12-07T02:10:16;94037.94;;;5.52;100.00
6150;BME280;3106;42.670;23.318;2023-12-07T02:12:46;94028.59;;;5.54;100.00
6150;BME280;3106;42.670;23.318;2023-12-07T02:15:14;94031.13;;;5.71;100.00
6150;BME280;3106;42.670;23.318;2023-12-07T02:17:47;94021.41;;;5.55;100.00
6150;BME280;3106;42.670;23.318;2023-12-07T02:20:21;94031.19;;;5.63;100.00
6150;BME280;3106;42.670;23.318;2023-12-07T02:22:54;94035.69;;;5.71;100.00
6150;BME280;3106;42.670;23.318;2023-12-07T02:25:24;94002.84;;;5.55;100.00
6150;BME280;3106;42.670;23.318;2023-12-07T02:27:54;94031.47;;;5.70;100.00
6150;BME280;3106;42.670;23.318;2023-12-07T02:30:21;94011.91;;;5.54;100.00
6150;BME280;3106;42.670;23.318;2023-12-07T02:32:48;94030.03;;;5.72;100.00
6150;BME280;3106;42.670;23.318;2023-12-07T02:35:15;94018.91;;;5.58;100.00
6150;BME280;3106;42.670;23.318;2023-12-07T02:37:44;94010.53;;;5.48;100.00
6150;BME280;3106;42.670;23.318;2023-12-07T02:40:14;94008.53;;;5.45;100.00
6150;BME280;3106;42.670;23.318;2023-12-07T02:42:43;94019.88;;;5.45;100.00
6150;BME280;3106;42.670;23.318;2023-12-07T02:45:12;94005.25;;;5.39;100.00
6150;BME280;3106;42.670;23.318;2023-12-07T02:47:39;94008.44;;;5.33;100.00
6150;BME280;3106;42.670;23.318;2023-12-07T02:50:09;94023.06;;;5.39;100.00
6150;BME280;3106;42.670;23.318;2023-12-07T02:52:36;94018.34;;;5.44;100.00
6150;BME280;3106;42.670;23.318;2023-12-07T02:55:04;94005.03;;;5.24;100.00
6150;BME280;3106;42.670;23.318;2023-12-07T02:57:31;94023.69;;;5.36;100.00
6150;BME280;3106;42.670;23.318;2023-12-07T02:59:59;94013.13;;;5.27;100.00
6150;BME280;3106;42.670;23.318;2023-12-07T03:02:27;94022.41;;;5.42;100.00
6150;BME280;3106;42.670;23.318;2023-12-07T03:04:54;94015.59;;;5.32;100.00
6150;BME280;3106;42.670;23.318;2023-12-07T03:07:21;93994.16;;;5.17;100.00
6150;BME280;3106;42.670;23.318;2023-12-07T03:09:48;94013.75;;;5.24;100.00
6150;BME280;3106;42.670;23.318;2023-12-07T03:12:15;94030.56;;;5.28;100.00
6150;BME280;3106;42.670;23.318;2023-12-07T03:14:42;94034.94;;;5.33;100.00
6150;BME280;3106;42.670;23.318;2023-12-07T03:17:09;93999.16;;;5.10;100.00
6150;BME280;3106;42.670;23.318;2023-12-07T03:19:39;94029.03;;;5.19;100.00
6150;BME280;3106;42.670;23.318;2023-12-07T03:22:06;94036.06;;;5.15;100.00
6150;BME280;3106;42.670;23.318;2023-12-07T03:24:34;94038.56;;;5.20;100.00
6150;BME280;3106;42.670;23.318;2023-12-07T03:27:01;94016.78;;;5.06;100.00
6150;BME280;3106;42.670;23.318;2023-12-07T03:29:28;94034.69;;;5.17;100.00
6150;BME280;3106;42.670;23.318;2023-12-07T03:31:55;94051.94;;;5.32;100.00
6150;BME280;3106;42.670;23.318;2023-12-07T03:34:22;94044.53;;;5.46;100.00
6150;BME280;3106;42.670;23.318;2023-12-07T03:36:50;94050.72;;;5.58;100.00
6150;BME280;3106;42.670;23.318;2023-12-07T03:39:17;94050.19;;;5.65;100.00
6150;BME280;3106;42.670;23.318;2023-12-07T03:41:47;94028.59;;;5.54;100.00
6150;BME280;3106;42.670;23.318;2023-12-07T03:44:14;94045.84;;;5.69;100.00
6150;BME280;3106;42.670;23.318;2023-12-07T03:46:41;94048.59;;;5.81;100.00
6150;BME280;3106;42.670;23.318;2023-12-07T03:49:08;94014.09;;;5.52;100.00
6150;BME280;3106;42.670;23.318;2023-12-07T03:51:35;93998.56;;;5.42;100.00
6150;BME280;3106;42.670;23.318;2023-12-07T03:54:04;94047.25;;;5.66;100.00
6150;BME280;3106;42.670;23.318;2023-12-07T03:56:32;94044.13;;;5.64;100.00
6150;BME280;3106;42.670;23.318;2023-12-07T03:59:00;94046.94;;;5.68;100.00
6150;BME280;3106;42.670;23.318;2023-12-07T04:01:28;94042.09;;;5.70;100.00
6150;BME280;3106;42.670;23.318;2023-12-07T04:03:56;94052.16;;;5.85;100.00
6150;BME280;3106;42.670;23.318;2023-12-07T04:06:24;94043.75;;;5.83;100.00
6150;BME280;3106;42.670;23.318;2023-12-07T04:08:51;94039.84;;;5.80;100.00
6150;BME280;3106;42.670;23.318;2023-12-07T04:11:19;94045.00;;;5.85;100.00
6150;BME280;3106;42.670;23.318;2023-12-07T04:13:46;94049.50;;;5.76;100.00
6150;BME280;3106;42.670;23.318;2023-12-07T04:16:14;94043.63;;;5.71;100.00
6150;BME280;3106;42.670;23.318;2023-12-07T04:18:42;94044.09;;;5.73;100.00
6150;BME280;3106;42.670;23.318;2023-12-07T04:21:09;94037.34;;;5.75;100.00
6150;BME280;3106;42.670;23.318;2023-12-07T04:23:36;94060.56;;;5.87;100.00
6150;BME280;3106;42.670;23.318;2023-12-07T04:26:03;94059.19;;;5.81;100.00
6150;BME280;3106;42.670;23.318;2023-12-07T04:28:31;94032.53;;;5.48;100.00
6150;BME280;3106;42.670;23.318;2023-12-07T04:30:58;94073.56;;;5.80;100.00
6150;BME280;3106;42.670;23.318;2023-12-07T04:33:25;94052.38;;;5.63;100.00
6150;BME280;3106;42.670;23.318;2023-12-07T04:35:52;94059.19;;;5.81;100.00
6150;BME280;3106;42.670;23.318;2023-12-07T04:38:19;94085.78;;;6.01;100.00
6150;BME280;3106;42.670;23.318;2023-12-07T04:40:46;94084.38;;;6.03;100.00
6150;BME280;3106;42.670;23.318;2023-12-07T04:43:13;94080.59;;;6.04;100.00
6150;BME280;3106;42.670;23.318;2023-12-07T04:45:41;94084.53;;;5.98;100.00
6150;BME280;3106;42.670;23.318;2023-12-07T04:48:08;94082.97;;;5.97;100.00
6150;BME280;3106;42.670;23.318;2023-12-07T04:50:35;94074.28;;;5.89;100.00
6150;BME280;3106;42.670;23.318;2023-12-07T04:53:02;94031.06;;;5.59;100.00
6150;BME280;3106;42.670;23.318;2023-12-07T04:55:29;94074.44;;;5.92;100.00
6150;BME280;3106;42.670;23.318;2023-12-07T04:57:56;94082.44;;;5.84;100.00
6150;BME280;3106;42.670;23.318;2023-12-07T05:00:23;94070.00;;;5.67;100.00
6150;BME280;3106;42.670;23.318;2023-12-07T05:02:51;94091.66;;;5.78;100.00
6150;BME280;3106;42.670;23.318;2023-12-07T05:05:18;94086.25;;;5.66;100.00
6150;BME280;3106;42.670;23.318;2023-12-07T05:07:45;94085.44;;;5.74;100.00
6150;BME280;3106;42.670;23.318;2023-12-07T05:10:12;94080.88;;;5.74;100.00
6150;BME280;3106;42.670;23.318;2023-12-07T05:12:39;94098.97;;;5.89;100.00
6150;BME280;3106;42.670;23.318;2023-12-07T05:15:07;94088.09;;;5.74;100.00
6150;BME280;3106;42.670;23.318;2023-12-07T05:17:34;94094.03;;;5.71;100.00
6150;BME280;3106;42.670;23.318;2023-12-07T05:20:04;94090.16;;;5.60;100.00
6150;BME280;3106;42.670;23.318;2023-12-07T05:22:32;94094.81;;;5.63;100.00
6150;BME280;3106;42.670;23.318;2023-12-07T05:24:59;94070.75;;;5.47;100.00
6150;BME280;3106;42.670;23.318;2023-12-07T05:27:26;94098.56;;;5.62;100.00
6150;BME280;3106;42.670;23.318;2023-12-07T05:29:53;94087.69;;;5.55;100.00
6150;BME280;3106;42.670;23.318;2023-12-07T05:32:20;94046.94;;;5.30;100.00
6150;BME280;3106;42.670;23.318;2023-12-07T05:34:47;94101.53;;;5.69;100.00
6150;BME280;3106;42.670;23.318;2023-12-07T05:37:17;94114.44;;;5.79;100.00
6150;BME280;3106;42.670;23.318;2023-12-07T05:39:44;94109.25;;;5.82;100.00
6150;BME280;3106;42.670;23.318;2023-12-07T05:42:11;94102.91;;;5.75;100.00
6150;BME280;3106;42.670;23.318;2023-12-07T05:44:38;94116.72;;;5.89;100.00
6150;BME280;3106;42.670;23.318;2023-12-07T05:47:05;94098.34;;;5.84;100.00
6150;BME280;3106;42.670;23.318;2023-12-07T05:49:33;94098.50;;;5.87;100.00
6150;BME280;3106;42.670;23.318;2023-12-07T05:52:00;94108.56;;;6.02;100.00
6150;BME280;3106;42.670;23.318;2023-12-07T05:54:29;94122.94;;;5.93;100.00
6150;BME280;3106;42.670;23.318;2023-12-07T05:56:56;94111.69;;;5.95;100.00
6150;BME280;3106;42.670;23.318;2023-12-07T05:59:23;94103.34;;;5.85;100.00
6150;BME280;3106;42.670;23.318;2023-12-07T06:01:51;94103.34;;;5.77;100.00
6150;BME280;3106;42.670;23.318;2023-12-07T06:04:18;94122.66;;;5.94;100.00
6150;BME280;3106;42.670;23.318;2023-12-07T06:06:45;94120.44;;;5.96;100.00
6150;BME280;3106;42.670;23.318;2023-12-07T06:09:13;94123.13;;;5.88;100.00
6150;BME280;3106;42.670;23.318;2023-12-07T06:11:41;94129.78;;;6.02;100.00
6150;BME280;3106;42.670;23.318;2023-12-07T06:14:08;94116.06;;;6.00;100.00
6150;BME280;3106;42.670;23.318;2023-12-07T06:16:35;94130.97;;;6.13;100.00
6150;BME280;3106;42.670;23.318;2023-12-07T06:19:02;94124.75;;;6.09;100.00
6150;BME280;3106;42.670;23.318;2023-12-07T06:21:30;94112.97;;;5.90;100.00
6150;BME280;3106;42.670;23.318;2023-12-07T06:23:57;94116.53;;;5.93;100.00
6150;BME280;3106;42.670;23.318;2023-12-07T06:26:25;94126.41;;;5.93;100.00
6150;BME280;3106;42.670;23.318;2023-12-07T06:28:54;94136.50;;;5.99;100.00
6150;BME280;3106;42.670;23.318;2023-12-07T06:31:21;94084.94;;;5.80;100.00
6150;BME280;3106;42.670;23.318;2023-12-07T06:33:48;94133.56;;;6.21;100.00
6150;BME280;3106;42.670;23.318;2023-12-07T06:36:19;94138.38;;;6.28;100.00
6150;BME280;3106;42.670;23.318;2023-12-07T06:38:46;94142.72;;;6.32;100.00
6150;BME280;3106;42.670;23.318;2023-12-07T06:41:14;94143.09;;;6.22;100.00
6150;BME280;3106;42.670;23.318;2023-12-07T06:43:41;94149.56;;;6.33;100.00
6150;BME280;3106;42.670;23.318;2023-12-07T06:46:31;94128.06;;;6.26;100.00
6150;BME280;3106;42.670;23.318;2023-12-07T06:59:27;94156.38;;;6.43;100.00
6150;BME280;3106;42.670;23.318;2023-12-07T07:01:56;94159.03;;;6.43;100.00
6150;BME280;3106;42.670;23.318;2023-12-07T07:04:23;94119.66;;;6.24;100.00
6150;BME280;3106;42.670;23.318;2023-12-07T07:06:50;94145.16;;;6.37;100.00
6150;BME280;3106;42.670;23.318;2023-12-07T07:09:17;94137.41;;;6.32;100.00
6150;BME280;3106;42.670;23.318;2023-12-07T07:11:47;94128.72;;;6.23;100.00
6150;BME280;3106;42.670;23.318;2023-12-07T07:14:14;94150.44;;;6.46;100.00
6150;BME280;3106;42.670;23.318;2023-12-07T07:16:41;94163.81;;;6.58;100.00
6150;BME280;3106;42.670;23.318;2023-12-07T07:19:10;94163.88;;;6.70;100.00
6150;BME280;3106;42.670;23.318;2023-12-07T07:21:37;94142.63;;;6.49;100.00
6150;BME280;3106;42.670;23.318;2023-12-07T07:24:05;94155.50;;;6.59;100.00
6150;BME280;3106;42.670;23.318;2023-12-07T07:26:33;94138.66;;;6.55;100.00
6150;BME280;3106;42.670;23.318;2023-12-07T07:29:00;94131.91;;;6.37;100.00
6150;BME280;3106;42.670;23.318;2023-12-07T07:31:28;94159.84;;;6.64;100.00
6150;BME280;3106;42.670;23.318;2023-12-07T07:33:56;94178.56;;;6.67;100.00
6150;BME280;3106;42.670;23.318;2023-12-07T07:36:24;94173.91;;;6.64;100.00
6150;BME280;3106;42.670;23.318;2023-12-07T07:38:51;94168.19;;;6.54;100.00
6150;BME280;3106;42.670;23.318;2023-12-07T07:41:18;94171.81;;;6.49;100.00
6150;BME280;3106;42.670;23.318;2023-12-07T07:43:45;94181.28;;;6.59;100.00
6150;BME280;3106;42.670;23.318;2023-12-07T07:46:14;94180.28;;;6.43;100.00
6150;BME280;3106;42.670;23.318;2023-12-07T07:48:41;94183.69;;;6.23;100.00
6150;BME280;3106;42.670;23.318;2023-12-07T07:51:08;94164.28;;;6.02;100.00
6150;BME280;3106;42.670;23.318;2023-12-07T07:53:36;94188.00;;;5.98;100.00
